Time;durP1;ratioP1;P1;durP2;ratioP2;P2;SDS_P1;SDS_P2;PMS_P1;PMS_P2;Temp;Humidity;BMP_temperature;BMP_pressure;BME280_temperature;BME280_humidity;BME280_pressure;Samples;Min_cycle;Max_cycle;Signal;HPM_P1;HPM_P2
2024/03/21 00:00:09;;;;;;;10.90;7.03;;;;;;;6.91;78.33;101299.47;5060618;28;20727;-71
2024/03/21 00:02:36;;;;;;;12.50;7.37;;;;;;;6.86;78.77;101302.16;5064342;28;20606;-71
2024/03/21 00:05:03;;;;;;;14.57;7.13;;;;;;;6.82;79.33;101293.28;5066700;28;20268;-71
2024/03/21 00:07:29;;;;;;;13.00;7.80;;;;;;;6.78;79.18;101292.28;5062842;28;20685;-71
2024/03/21 00:09:56;;;;;;;10.40;7.10;;;;;;;6.74;78.72;101296.53;5063108;28;20626;-71
2024/03/21 00:12:21;;;;;;;13.13;7.10;;;;;;;6.69;79.19;101288.72;5062474;28;20214;-71
2024/03/21 00:14:49;;;;;;;12.20;6.67;;;;;;;6.66;80.02;101288.50;5047503;28;20201;-71
2024/03/21 00:17:15;;;;;;;14.20;7.80;;;;;;;6.64;80.34;101288.03;5047327;28;20233;-71
2024/03/21 00:19:41;;;;;;;12.23;7.43;;;;;;;6.60;81.18;101285.19;5061107;28;20561;-71
2024/03/21 00:22:06;;;;;;;10.70;6.73;;;;;;;6.56;82.67;101283.38;5061974;28;20658;-71
2024/03/21 00:24:33;;;;;;;13.33;7.23;;;;;;;6.53;82.12;101274.22;5056771;28;20209;-71
2024/03/21 00:26:58;;;;;;;13.07;7.23;;;;;;;6.51;82.64;101270.31;5062148;28;20231;-70
2024/03/21 00:29:25;;;;;;;13.30;6.97;;;;;;;6.49;83.64;101272.47;5060046;28;20191;-71
2024/03/21 00:31:51;;;;;;;11.77;7.20;;;;;;;6.47;83.66;101269.34;5062469;28;20214;-71
2024/03/21 00:34:18;;;;;;;12.10;7.20;;;;;;;6.45;83.38;101280.13;5064029;28;20218;-71
2024/03/21 00:36:43;;;;;;;13.00;7.03;;;;;;;6.45;84.14;101274.88;5060634;28;20222;-71
2024/03/21 00:39:18;;;;;;;12.47;6.73;;;;;;;6.43;84.53;101268.34;5060781;28;20202;-71
2024/03/21 00:41:44;;;;;;;10.83;6.70;;;;;;;6.42;84.75;101272.78;5065348;28;20660;-70
2024/03/21 00:44:11;;;;;;;13.97;7.13;;;;;;;6.41;85.35;101271.25;5065186;28;20233;-71
2024/03/21 00:46:37;;;;;;;10.33;6.40;;;;;;;6.41;84.50;101273.06;5065677;28;20214;-71
2024/03/21 00:49:05;;;;;;;11.93;7.30;;;;;;;6.39;85.32;101267.34;5060346;28;20193;-71
2024/03/21 00:51:31;;;;;;;11.30;7.37;;;;;;;6.35;85.21;101264.50;5063881;28;20549;-71
2024/03/21 00:53:58;;;;;;;15.93;7.63;;;;;;;6.33;85.54;101269.22;5045477;28;20209;-70
2024/03/21 00:56:23;;;;;;;12.20;7.00;;;;;;;6.32;85.63;101269.53;5060966;28;20780;-71
2024/03/21 00:58:49;;;;;;;13.80;7.17;;;;;;;6.30;86.94;101266.38;5065229;28;20273;-71
2024/03/21 01:01:15;;;;;;;11.80;7.20;;;;;;;6.28;87.07;101260.66;5066099;28;20223;-71
2024/03/21 01:03:42;;;;;;;11.60;6.43;;;;;;;6.25;87.62;101264.59;5038558;28;20331;-71
2024/03/21 01:06:09;;;;;;;12.73;7.37;;;;;;;6.24;88.22;101267.50;5060190;28;20226;-70
2024/03/21 01:08:35;;;;;;;13.33;6.17;;;;;;;6.23;89.37;101255.47;5059795;28;20278;-71
2024/03/21 01:11:01;;;;;;;10.87;6.67;;;;;;;6.21;88.92;101249.72;5058583;28;20735;-71
2024/03/21 01:13:27;;;;;;;11.90;6.60;;;;;;;6.20;89.90;101250.75;5062366;28;20202;-71
2024/03/21 01:15:53;;;;;;;14.13;7.27;;;;;;;6.19;90.21;101251.81;5047040;28;20220;-71
2024/03/21 01:18:25;;;;;;;13.20;7.33;;;;;;;6.18;91.05;101251.06;5059244;28;20199;-71
2024/03/21 01:20:51;;;;;;;12.03;6.67;;;;;;;6.19;92.25;101243.97;5047227;28;20202;-71
2024/03/21 01:23:19;;;;;;;10.47;6.43;;;;;;;6.18;92.85;101243.19;5061021;28;20197;-71
2024/03/21 01:25:44;;;;;;;11.77;6.93;;;;;;;6.19;94.18;101247.38;5058650;28;20219;-71
2024/03/21 01:28:11;;;;;;;10.97;6.87;;;;;;;6.19;94.98;101243.97;5061108;28;20580;-71
2024/03/21 01:30:36;;;;;;;13.13;7.47;;;;;;;6.19;94.43;101229.03;5058857;28;20205;-71
2024/03/21 01:33:04;;;;;;;12.67;7.20;;;;;;;6.21;94.86;101236.63;5062424;28;20194;-71
2024/03/21 01:35:30;;;;;;;10.73;6.57;;;;;;;6.20;94.80;101238.44;5061780;28;20745;-71
2024/03/21 01:37:57;;;;;;;11.63;6.73;;;;;;;6.21;95.55;101240.00;5070052;28;20252;-70
2024/03/21 01:40:24;;;;;;;12.67;7.43;;;;;;;6.23;95.85;101237.91;5074092;28;20191;-70
2024/03/21 01:42:51;;;;;;;11.23;6.70;;;;;;;6.23;96.13;101237.91;5059845;28;20230;-70
2024/03/21 01:45:18;;;;;;;11.07;7.03;;;;;;;6.27;96.06;101235.50;5082388;28;20662;-70
2024/03/21 01:47:44;;;;;;;12.00;7.50;;;;;;;6.27;95.84;101235.50;5080909;28;20199;-70
2024/03/21 01:50:11;;;;;;;10.37;6.77;;;;;;;6.30;95.60;101227.03;5084956;28;20267;-70
2024/03/21 01:52:39;;;;;;;12.57;8.00;;;;;;;6.31;95.96;101226.00;5075140;28;20217;-70
2024/03/21 01:55:05;;;;;;;13.03;6.83;;;;;;;6.32;96.29;101224.94;5074921;28;20720;-71
2024/03/21 01:57:35;;;;;;;12.00;6.77;;;;;;;6.34;97.15;101220.19;5067189;28;20289;-70
2024/03/21 02:00:01;;;;;;;11.87;6.93;;;;;;;6.34;97.34;101220.97;5066528;28;20222;-71
2024/03/21 02:02:27;;;;;;;9.80;6.57;;;;;;;6.34;97.21;101223.59;5061335;28;20222;-71
2024/03/21 02:04:53;;;;;;;10.27;6.73;;;;;;;6.35;97.38;101219.13;5065326;28;20307;-71
2024/03/21 02:07:19;;;;;;;11.83;7.17;;;;;;;6.35;97.31;101214.66;5064035;28;20306;-71
2024/03/21 02:09:45;;;;;;;11.43;6.80;;;;;;;6.36;97.34;101218.84;5061863;28;20202;-71
2024/03/21 02:12:12;;;;;;;11.90;7.27;;;;;;;6.36;98.06;101223.28;5057383;28;20203;-71
2024/03/21 02:14:39;;;;;;;11.07;7.10;;;;;;;6.38;98.42;101221.19;5060094;28;20192;-71
2024/03/21 02:17:06;;;;;;;11.27;7.33;;;;;;;6.38;98.53;101215.94;5066077;28;20234;-70
2024/03/21 02:19:31;;;;;;;12.50;6.93;;;;;;;6.39;98.51;101212.25;5064596;28;20203;-71
2024/03/21 02:25:11;;;;;;;12.83;7.33;;;;;;;6.41;99.09;101204.88;5067781;28;20215;-71
2024/03/21 02:27:38;;;;;;;12.50;7.40;;;;;;;6.43;99.75;101210.63;5061322;28;20627;-71
2024/03/21 02:30:05;;;;;;;11.53;7.50;;;;;;;6.43;99.59;101203.53;5063424;28;20241;-71
2024/03/21 02:32:30;;;;;;;12.60;7.60;;;;;;;6.46;100.00;101207.41;5047356;28;20199;-71
2024/03/21 02:34:57;;;;;;;11.70;7.13;;;;;;;6.47;100.00;101203.75;5051945;28;20206;-71
2024/03/21 02:37:24;;;;;;;18.07;8.67;;;;;;;6.48;100.00;101210.56;5065024;28;20204;-71
2024/03/21 02:39:51;;;;;;;14.73;8.10;;;;;;;6.50;100.00;101211.84;5065569;28;20203;-71
2024/03/21 02:42:18;;;;;;;14.77;7.50;;;;;;;6.50;100.00;101200.56;5063987;28;20207;-71
2024/03/21 02:44:44;;;;;;;11.40;7.10;;;;;;;6.51;100.00;101200.28;5063409;28;20562;-71
2024/03/21 02:47:11;;;;;;;14.70;7.43;;;;;;;6.52;100.00;101203.69;5040649;28;20227;-71
2024/03/21 02:49:37;;;;;;;18.07;8.37;;;;;;;6.52;100.00;101201.84;5064083;28;20201;-71
2024/03/21 02:52:04;;;;;;;15.67;8.87;;;;;;;6.51;100.00;101197.66;5061575;28;20191;-71
2024/03/21 02:54:31;;;;;;;16.40;7.67;;;;;;;6.52;100.00;101206.31;5062592;28;20564;-71
2024/03/21 02:56:58;;;;;;;12.10;7.33;;;;;;;6.50;100.00;101203.19;5040821;28;20214;-71
2024/03/21 02:59:24;;;;;;;14.57;8.30;;;;;;;6.47;100.00;101201.91;5043924;28;20199;-71
2024/03/21 03:01:50;;;;;;;12.70;8.23;;;;;;;6.45;100.00;101198.00;5064772;28;20193;-71
2024/03/21 03:04:15;;;;;;;13.90;7.50;;;;;;;6.42;100.00;101199.34;5061127;28;20211;-71
2024/03/21 03:06:42;;;;;;;10.40;7.13;;;;;;;6.39;100.00;101201.75;5057477;28;20724;-71
2024/03/21 03:09:08;;;;;;;10.57;7.00;;;;;;;6.37;100.00;101196.03;5067968;28;20210;-71
2024/03/21 03:11:38;;;;;;;12.03;7.73;;;;;;;6.33;100.00;101195.78;5058908;28;20214;-71
2024/03/21 03:14:04;;;;;;;12.13;7.57;;;;;;;6.31;100.00;101195.28;5063730;28;20201;-71
2024/03/21 03:16:30;;;;;;;15.40;8.07;;;;;;;6.28;100.00;101190.63;5061991;28;20297;-71
2024/03/21 03:18:55;;;;;;;12.50;6.93;;;;;;;6.26;100.00;101192.75;5065030;28;20213;-71
2024/03/21 03:21:22;;;;;;;14.17;7.93;;;;;;;6.23;100.00;101190.69;5065039;28;20195;-71
2024/03/21 03:23:47;;;;;;;16.23;7.90;;;;;;;6.22;100.00;101183.09;5065512;28;20219;-71
2024/03/21 03:26:14;;;;;;;14.87;9.03;;;;;;;6.21;100.00;101178.94;5064260;28;20633;-71
2024/03/21 03:28:40;;;;;;;12.47;7.60;;;;;;;6.20;100.00;101179.97;5063521;28;20661;-71
2024/03/21 03:31:07;;;;;;;16.93;8.27;;;;;;;6.19;100.00;101178.41;5062551;28;20195;-71
2024/03/21 03:36:17;;;;;;;17.43;9.23;;;;;;;6.15;100.00;101175.56;5062955;28;20271;-71
2024/03/21 03:38:44;;;;;;;19.13;9.83;;;;;;;6.14;100.00;101178.47;5060546;28;20207;-71
2024/03/21 03:41:09;;;;;;;13.77;8.33;;;;;;;6.13;100.00;101177.72;5063456;28;20197;-71
2024/03/21 03:43:36;;;;;;;14.37;8.53;;;;;;;6.12;100.00;101178.75;5061673;28;20191;-71
2024/03/21 03:46:04;;;;;;;14.43;8.87;;;;;;;6.11;100.00;101182.44;5064206;28;20598;-71
2024/03/21 03:48:30;;;;;;;15.33;8.83;;;;;;;6.11;100.00;101171.19;5061869;28;20206;-71
2024/03/21 03:50:57;;;;;;;13.53;9.13;;;;;;;6.12;100.00;101175.34;5059704;28;20213;-71
2024/03/21 03:53:22;;;;;;;16.43;8.90;;;;;;;6.13;100.00;101177.72;5056323;28;20578;-71
2024/03/21 03:55:48;;;;;;;15.93;9.37;;;;;;;6.15;100.00;101180.81;5059170;28;20215;-71
2024/03/21 03:58:14;;;;;;;17.13;9.93;;;;;;;6.18;100.00;101176.84;5061882;28;20205;-71
2024/03/21 04:00:40;;;;;;;20.30;11.53;;;;;;;6.21;100.00;101165.81;5054466;28;20196;-71
2024/03/21 04:03:07;;;;;;;19.40;11.00;;;;;;;6.26;100.00;101173.63;5061272;28;20574;-71
2024/03/21 04:05:33;;;;;;;17.83;10.57;;;;;;;6.30;100.00;101185.09;5057854;28;20288;-71
2024/03/21 04:07:59;;;;;;;21.67;11.93;;;;;;;6.34;100.00;101173.75;5065439;28;20191;-71
2024/03/21 04:10:25;;;;;;;19.10;11.47;;;;;;;6.41;100.00;101168.94;5063972;28;20205;-71
2024/03/21 04:12:51;;;;;;;17.47;10.17;;;;;;;6.45;100.00;101174.38;5057500;28;20210;-71
2024/03/21 04:15:17;;;;;;;14.60;10.27;;;;;;;6.50;100.00;101175.13;5063347;28;20222;-71
2024/03/21 04:17:43;;;;;;;21.20;11.63;;;;;;;6.55;100.00;101169.78;5058980;28;20278;-71
2024/03/21 04:20:12;;;;;;;18.23;11.50;;;;;;;6.59;100.00;101173.41;5060464;28;20205;-71
2024/03/21 04:22:37;;;;;;;19.77;11.70;;;;;;;6.64;100.00;101175.19;5057919;28;20209;-71
2024/03/21 04:25:05;;;;;;;17.70;11.23;;;;;;;6.68;100.00;101171.69;5061096;28;20215;-71
2024/03/21 04:27:31;;;;;;;18.43;12.13;;;;;;;6.73;100.00;101170.84;5060465;28;20198;-71
2024/03/21 04:29:58;;;;;;;19.93;11.50;;;;;;;6.76;100.00;101176.31;5058686;28;20206;-71
2024/03/21 04:32:25;;;;;;;20.27;12.70;;;;;;;6.81;100.00;101180.69;5055293;28;20626;-71
2024/03/21 04:34:51;;;;;;;25.67;12.70;;;;;;;6.85;100.00;101181.69;5059354;28;20187;-71
2024/03/21 04:37:19;;;;;;;20.80;12.33;;;;;;;6.89;100.00;101178.19;5060747;28;20215;-71
2024/03/21 04:39:46;;;;;;;19.90;11.80;;;;;;;6.93;100.00;101186.28;5059649;28;20207;-71
2024/03/21 04:42:14;;;;;;;21.93;12.07;;;;;;;6.97;100.00;101180.19;5059225;28;20213;-71
2024/03/21 04:44:40;;;;;;;18.60;12.20;;;;;;;7.00;100.00;101191.97;5058833;28;20207;-71
2024/03/21 04:47:06;;;;;;;21.87;13.13;;;;;;;7.03;100.00;101184.28;5042727;28;20587;-71
2024/03/21 04:49:33;;;;;;;21.83;13.77;;;;;;;7.06;100.00;101183.72;5061777;28;20208;-71
2024/03/21 04:51:59;;;;;;;22.07;12.80;;;;;;;7.09;100.00;101187.63;5060763;28;20238;-71
2024/03/21 04:54:26;;;;;;;22.10;12.50;;;;;;;7.12;100.00;101200.16;5056317;28;20204;-71
2024/03/21 04:56:52;;;;;;;20.47;12.17;;;;;;;7.15;100.00;101203.00;5062348;28;20321;-71
2024/03/21 04:59:17;;;;;;;22.73;13.70;;;;;;;7.18;100.00;101199.81;5061999;28;20203;-71
2024/03/21 05:01:44;;;;;;;21.73;13.83;;;;;;;7.20;100.00;101199.53;5063790;28;20226;-71
2024/03/21 05:04:09;;;;;;;20.27;13.10;;;;;;;7.23;100.00;101194.47;5061758;28;20193;-71
2024/03/21 05:06:35;;;;;;;21.47;13.63;;;;;;;7.26;100.00;101201.00;5057721;28;20230;-71
2024/03/21 05:09:01;;;;;;;23.37;15.50;;;;;;;7.28;100.00;101198.84;5059165;28;20207;-71
2024/03/21 05:11:29;;;;;;;26.60;13.90;;;;;;;7.31;100.00;101203.53;5067990;28;20202;-71
2024/03/21 05:13:54;;;;;;;22.60;15.00;;;;;;;7.34;100.00;101202.94;5067539;28;20196;-71
2024/03/21 05:16:21;;;;;;;22.13;13.90;;;;;;;7.35;100.00;101202.66;5066779;28;20207;-71
2024/03/21 05:18:48;;;;;;;25.47;15.20;;;;;;;7.38;100.00;101201.31;5062225;28;20222;-71
2024/03/21 05:21:14;;;;;;;25.37;15.57;;;;;;;7.41;100.00;101196.25;5064295;28;20705;-71
2024/03/21 05:23:40;;;;;;;26.57;15.50;;;;;;;7.44;100.00;101198.31;5063500;28;20203;-71
2024/03/21 05:26:06;;;;;;;24.87;15.50;;;;;;;7.46;100.00;101200.66;5065594;28;20736;-71
2024/03/21 05:28:33;;;;;;;24.67;14.50;;;;;;;7.50;100.00;101191.91;5064055;28;20683;-71
2024/03/21 05:30:59;;;;;;;23.67;14.93;;;;;;;7.55;100.00;101193.63;5068004;28;20724;-71
2024/03/21 05:33:25;;;;;;;23.93;15.53;;;;;;;7.59;100.00;101192.00;5067312;28;20192;-71
2024/03/21 05:35:51;;;;;;;24.37;14.77;;;;;;;7.62;100.00;101186.94;5062810;28;20222;-71
2024/03/21 05:38:16;;;;;;;24.60;15.83;;;;;;;7.66;100.00;101184.53;5064473;28;20213;-71
2024/03/21 05:40:43;;;;;;;25.10;15.07;;;;;;;7.70;100.00;101181.03;5063476;28;20197;-71
2024/03/21 05:43:08;;;;;;;23.90;15.37;;;;;;;7.75;100.00;101180.13;5063370;28;20229;-71
2024/03/21 05:45:36;;;;;;;27.03;15.17;;;;;;;7.78;100.00;101182.19;5063398;28;20315;-71
2024/03/21 05:48:03;;;;;;;28.33;15.57;;;;;;;7.82;100.00;101186.56;5066596;28;20208;-71
2024/03/21 05:50:29;;;;;;;26.10;15.70;;;;;;;7.85;100.00;101183.38;5060889;28;20197;-71
2024/03/21 05:52:55;;;;;;;28.13;16.03;;;;;;;7.90;100.00;101185.09;5048293;28;20206;-71
2024/03/21 05:55:21;;;;;;;25.07;15.73;;;;;;;7.93;100.00;101177.41;5065225;28;20221;-71
2024/03/21 05:57:46;;;;;;;27.47;15.83;;;;;;;7.96;100.00;101182.09;5044286;28;20210;-71
2024/03/21 06:00:17;;;;;;;26.83;15.63;;;;;;;7.99;100.00;101178.09;5047678;28;20210;-71
2024/03/21 06:02:43;;;;;;;25.63;14.93;;;;;;;8.03;100.00;101176.44;5063496;28;20217;-71
2024/03/21 06:05:10;;;;;;;26.17;15.10;;;;;;;8.06;100.00;101170.59;5063673;28;20213;-71
2024/03/21 06:07:35;;;;;;;25.20;15.73;;;;;;;8.09;100.00;101173.44;5059855;28;20215;-71
2024/03/21 06:10:02;;;;;;;24.30;14.17;;;;;;;8.13;100.00;101184.91;5046646;28;20203;-71
2024/03/21 06:12:29;;;;;;;23.17;15.73;;;;;;;8.19;100.00;101180.31;5061554;28;20580;-71
2024/03/21 06:14:55;;;;;;;27.80;16.20;;;;;;;8.23;100.00;101182.09;5059667;28;20194;-71
2024/03/21 06:17:20;;;;;;;26.10;15.60;;;;;;;8.29;100.00;101196.69;5061678;28;20572;-71
2024/03/21 06:19:48;;;;;;;25.30;16.47;;;;;;;8.34;100.00;101187.94;5061179;28;20206;-71
2024/03/21 06:22:14;;;;;;;25.10;15.43;;;;;;;8.39;100.00;101193.09;5063030;28;20211;-71
2024/03/21 06:24:41;;;;;;;22.17;15.33;;;;;;;8.44;100.00;101185.84;5046158;28;20221;-71
2024/03/21 06:27:06;;;;;;;20.93;13.87;;;;;;;8.50;100.00;101189.16;5064922;28;20230;-71
2024/03/21 06:29:32;;;;;;;24.83;14.87;;;;;;;8.57;100.00;101187.69;5059585;28;20205;-71
2024/03/21 06:31:58;;;;;;;23.47;14.93;;;;;;;8.62;100.00;101186.78;5063153;28;20278;-72
2024/03/21 06:34:24;;;;;;;21.07;14.10;;;;;;;8.68;100.00;101181.13;5062130;28;20195;-71
2024/03/21 06:36:51;;;;;;;22.00;14.87;;;;;;;8.73;100.00;101185.47;5058186;28;20215;-71
2024/03/21 06:39:19;;;;;;;22.87;16.00;;;;;;;8.79;100.00;101187.69;5060310;28;20195;-71
2024/03/21 06:41:45;;;;;;;26.57;16.23;;;;;;;8.87;100.00;101186.22;5057909;28;20214;-71
2024/03/21 06:44:11;;;;;;;27.40;15.83;;;;;;;8.92;100.00;101188.72;5062234;28;21072;-71
2024/03/21 06:46:38;;;;;;;24.30;14.23;;;;;;;8.98;100.00;101183.06;5064778;28;20237;-71
2024/03/21 06:49:04;;;;;;;22.17;15.33;;;;;;;9.03;100.00;101182.13;5047025;28;20211;-71
2024/03/21 06:51:30;;;;;;;20.63;13.90;;;;;;;9.09;100.00;101191.47;5062232;28;20199;-71
2024/03/21 06:53:57;;;;;;;23.07;14.47;;;;;;;9.12;100.00;101177.72;5044958;28;20580;-71
2024/03/21 06:56:23;;;;;;;23.03;14.00;;;;;;;9.18;100.00;101181.78;5062489;28;20717;-71
2024/03/21 06:58:49;;;;;;;22.17;14.13;;;;;;;9.20;100.00;101177.75;5060104;28;20204;-72
2024/03/21 07:01:16;;;;;;;19.40;14.10;;;;;;;9.24;100.00;101177.94;5059995;28;20202;-71
2024/03/21 07:03:43;;;;;;;20.87;13.67;;;;;;;9.28;100.00;101182.31;5059933;28;20260;-71
2024/03/21 07:06:08;;;;;;;20.97;13.27;;;;;;;9.31;100.00;101186.97;5060676;28;20265;-71
2024/03/21 07:08:35;;;;;;;20.37;12.97;;;;;;;9.34;100.00;101181.09;5063451;28;20187;-71
2024/03/21 07:11:01;;;;;;;19.97;12.20;;;;;;;9.37;100.00;101175.22;5060747;28;20565;-71
2024/03/21 07:13:28;;;;;;;21.63;12.87;;;;;;;9.42;100.00;101169.81;5066517;28;20211;-71
2024/03/21 07:15:57;;;;;;;19.57;13.83;;;;;;;9.48;100.00;101165.19;5058492;28;20215;-71
2024/03/21 07:18:23;;;;;;;20.13;13.23;;;;;;;9.52;100.00;101177.47;5055943;28;20230;-71
2024/03/21 07:20:55;;;;;;;19.50;13.83;;;;;;;9.58;100.00;101172.84;5058199;28;20203;-71
2024/03/21 07:23:22;;;;;;;18.13;12.33;;;;;;;9.64;100.00;101171.63;5054482;28;20198;-71
2024/03/21 07:25:47;;;;;;;20.63;13.07;;;;;;;9.69;100.00;101174.88;5041779;28;20700;-71
2024/03/21 07:28:15;;;;;;;18.27;11.83;;;;;;;9.74;100.00;101176.63;5053399;28;20208;-71
2024/03/21 07:30:40;;;;;;;17.63;12.47;;;;;;;9.79;100.00;101179.88;5057810;28;20993;-71
2024/03/21 07:33:06;;;;;;;20.33;12.73;;;;;;;9.86;100.00;101174.19;5060964;28;20193;-71
2024/03/21 07:35:32;;;;;;;19.20;11.97;;;;;;;9.92;100.00;101172.94;5061085;28;20265;-71
2024/03/21 07:37:58;;;;;;;17.27;12.47;;;;;;;9.98;100.00;101174.34;5057652;28;20743;-71
2024/03/21 07:40:24;;;;;;;18.43;12.03;;;;;;;10.06;100.00;101179.72;5061885;28;20204;-71
2024/03/21 07:42:50;;;;;;;17.67;12.57;;;;;;;10.13;100.00;101181.88;5056693;28;20207;-71
2024/03/21 07:45:17;;;;;;;18.87;11.30;;;;;;;10.20;100.00;101192.78;5056837;28;21438;-72
2024/03/21 07:47:44;;;;;;;18.53;11.83;;;;;;;10.28;100.00;101194.66;5043899;28;20210;-71
2024/03/21 07:50:09;;;;;;;20.17;11.73;;;;;;;10.35;100.00;101184.44;5059572;28;20200;-72
2024/03/21 07:52:35;;;;;;;19.57;12.30;;;;;;;10.43;100.00;101184.44;5062028;28;20276;-71
2024/03/21 07:55:01;;;;;;;16.97;11.30;;;;;;;10.50;100.00;101189.25;5059515;28;20205;-71
2024/03/21 07:57:27;;;;;;;17.00;11.07;;;;;;;10.58;100.00;101191.13;5045492;28;20205;-71
2024/03/21 07:59:53;;;;;;;16.90;11.27;;;;;;;10.65;100.00;101191.41;5058317;28;20573;-71
2024/03/21 08:02:21;;;;;;;17.70;12.13;;;;;;;10.72;100.00;101187.22;5059958;28;20213;-72
2024/03/21 08:04:46;;;;;;;16.40;11.00;;;;;;;10.79;100.00;101182.28;5057341;28;20207;-71
2024/03/21 08:07:13;;;;;;;16.30;10.63;;;;;;;10.85;100.00;101191.59;5057907;28;20285;-71
2024/03/21 08:09:38;;;;;;;17.97;11.63;;;;;;;10.90;100.00;101191.44;5058380;28;20203;-71
2024/03/21 08:12:05;;;;;;;18.20;11.23;;;;;;;10.98;100.00;101187.22;5046778;28;20955;-71
2024/03/21 08:14:31;;;;;;;16.13;11.47;;;;;;;11.03;100.00;101197.63;5060646;28;20669;-71
2024/03/21 08:16:57;;;;;;;14.50;10.53;;;;;;;11.07;100.00;101194.03;5059874;28;20690;-71
2024/03/21 08:19:24;;;;;;;18.10;11.23;;;;;;;11.12;100.00;101190.47;5057270;28;20250;-71
2024/03/21 08:21:51;;;;;;;16.60;10.77;;;;;;;11.16;100.00;101197.47;5058041;28;20203;-71
2024/03/21 08:24:16;;;;;;;15.53;11.00;;;;;;;11.19;100.00;101196.06;5056164;28;20206;-72
2024/03/21 08:26:42;;;;;;;17.00;10.57;;;;;;;11.19;100.00;101202.09;5057458;28;20226;-71
2024/03/21 08:29:08;;;;;;;15.67;10.63;;;;;;;11.22;100.00;101198.06;5055504;28;20210;-71
2024/03/21 08:31:34;;;;;;;15.13;10.83;;;;;;;11.23;100.00;101199.63;5056583;28;20568;-71
2024/03/21 08:33:59;;;;;;;19.20;9.97;;;;;;;11.26;100.00;101212.19;5055279;28;20210;-72
2024/03/21 08:36:27;;;;;;;28.00;16.57;;;;;;;11.28;100.00;101223.25;5050611;28;20215;-72
2024/03/21 08:38:52;;;;;;;20.53;15.60;;;;;;;11.30;100.00;101221.84;5058307;28;20195;-71
2024/03/21 08:41:19;;;;;;;142.33;61.87;;;;;;;11.35;100.00;101223.53;5055416;28;20197;-72
2024/03/21 08:43:48;;;;;;;40.93;22.77;;;;;;;11.39;100.00;101222.59;5061143;28;20198;-71
2024/03/21 08:46:15;;;;;;;25.47;15.57;;;;;;;11.44;100.00;101222.44;5057905;28;20306;-72
2024/03/21 08:48:40;;;;;;;37.37;29.63;;;;;;;11.50;100.00;101223.81;5056762;28;20199;-72
2024/03/21 08:51:06;;;;;;;22.37;15.30;;;;;;;11.57;100.00;101220.69;5056070;28;20195;-71
2024/03/21 08:53:37;;;;;;;20.80;14.80;;;;;;;11.63;100.00;101225.53;5036394;28;20305;-71
2024/03/21 08:56:04;;;;;;;21.00;15.30;;;;;;;11.71;100.00;101232.66;5059769;28;20693;-72
2024/03/21 08:58:30;;;;;;;30.80;19.10;;;;;;;11.79;100.00;101225.75;5055391;28;21051;-72
2024/03/21 09:00:56;;;;;;;17.03;12.07;;;;;;;11.84;100.00;101234.31;5054576;28;20268;-72
2024/03/21 09:03:21;;;;;;;14.13;10.20;;;;;;;11.92;100.00;101232.72;5060473;28;20202;-72
2024/03/21 09:05:48;;;;;;;17.23;10.97;;;;;;;11.97;100.00;101229.91;5062535;28;20229;-71
2024/03/21 09:08:13;;;;;;;15.97;9.90;;;;;;;12.04;100.00;101232.81;5059880;28;20204;-72
2024/03/21 09:10:41;;;;;;;14.60;10.30;;;;;;;12.07;100.00;101226.91;5060933;28;20238;-71
2024/03/21 09:13:06;;;;;;;15.80;10.60;;;;;;;12.11;100.00;101225.19;5054566;28;20199;-71
2024/03/21 09:15:32;;;;;;;16.70;11.47;;;;;;;12.15;100.00;101239.31;5061502;28;20228;-71
2024/03/21 09:17:58;;;;;;;15.13;10.97;;;;;;;12.17;100.00;101255.66;5057468;28;20237;-72
2024/03/21 09:20:25;;;;;;;17.10;10.63;;;;;;;12.16;100.00;101243.53;5060124;28;20210;-71
2024/03/21 09:22:51;;;;;;;15.70;10.13;;;;;;;12.15;100.00;101252.53;5056971;28;20195;-71
2024/03/21 09:25:17;;;;;;;16.53;11.73;;;;;;;12.13;100.00;101250.25;5060033;28;20202;-71
2024/03/21 09:27:44;;;;;;;21.90;15.17;;;;;;;12.11;100.00;101264.88;5043306;28;20214;-71
2024/03/21 09:30:11;;;;;;;18.77;14.00;;;;;;;12.07;100.00;101279.84;5057366;28;20248;-71
2024/03/21 09:32:37;;;;;;;16.73;11.80;;;;;;;12.02;100.00;101283.47;5055660;28;20211;-71
2024/03/21 09:35:06;;;;;;;14.67;10.87;;;;;;;11.96;100.00;101295.28;5057998;28;20191;-72
2024/03/21 09:37:32;;;;;;;16.70;11.40;;;;;;;11.95;100.00;101288.44;5043324;28;20226;-72
2024/03/21 09:39:59;;;;;;;18.37;12.07;;;;;;;11.93;100.00;101295.94;5059276;28;20282;-71
2024/03/21 09:42:24;;;;;;;16.90;12.10;;;;;;;11.91;100.00;101305.28;5062429;28;20708;-72
2024/03/21 09:44:53;;;;;;;20.93;13.30;;;;;;;11.86;100.00;101302.81;5058929;28;20203;-72
2024/03/21 09:47:20;;;;;;;18.27;12.27;;;;;;;11.80;100.00;101302.19;5061408;28;20693;-72
2024/03/21 09:49:47;;;;;;;16.60;11.37;;;;;;;11.74;100.00;101302.69;5053182;28;20203;-72
2024/03/21 09:52:13;;;;;;;20.30;13.67;;;;;;;11.74;100.00;101310.63;5060175;28;20225;-72
2024/03/21 09:54:40;;;;;;;16.53;13.00;;;;;;;11.70;100.00;101296.47;5061753;28;20567;-71
2024/03/21 09:57:11;;;;;;;22.30;13.20;;;;;;;11.69;100.00;101305.50;5062095;28;20233;-72
2024/03/21 09:59:37;;;;;;;18.67;13.33;;;;;;;11.67;100.00;101312.97;5061569;28;20757;-72
2024/03/21 10:02:08;;;;;;;16.73;12.50;;;;;;;11.56;100.00;101307.22;5059071;28;20205;-72
2024/03/21 10:04:41;;;;;;;19.03;13.60;;;;;;;11.53;100.00;101309.69;5059335;28;20291;-71
2024/03/21 10:07:16;;;;;;;20.10;13.33;;;;;;;11.51;100.00;101319.81;5065479;28;20880;-72
2024/03/21 10:09:42;;;;;;;23.37;14.70;;;;;;;11.45;100.00;101318.41;5051120;28;20209;-71
2024/03/21 10:12:08;;;;;;;18.37;12.37;;;;;;;11.41;100.00;101325.41;5062531;28;20544;-72
2024/03/21 10:14:34;;;;;;;23.40;15.53;;;;;;;11.33;100.00;101321.69;5045360;28;20201;-72
2024/03/21 10:17:03;;;;;;;19.40;13.77;;;;;;;11.30;100.00;101332.09;5062824;28;20219;-72
2024/03/21 10:19:30;;;;;;;18.60;13.77;;;;;;;11.26;100.00;101329.31;5063676;28;20298;-72
2024/03/21 10:21:56;;;;;;;32.43;19.97;;;;;;;11.26;100.00;101345.19;5063737;28;20210;-72
2024/03/21 10:24:23;;;;;;;30.17;18.23;;;;;;;11.20;100.00;101348.28;5057994;28;20205;-72
2024/03/21 10:26:48;;;;;;;29.53;18.27;;;;;;;11.18;100.00;101343.28;5061499;28;20965;-72
2024/03/21 10:29:17;;;;;;;24.60;15.37;;;;;;;11.06;100.00;101332.56;5064722;28;20205;-71
2024/03/21 10:31:44;;;;;;;22.37;15.80;;;;;;;11.05;100.00;101341.59;5062234;28;20218;-72
2024/03/21 10:34:12;;;;;;;25.10;16.73;;;;;;;11.03;100.00;101345.63;5061302;28;20204;-71
2024/03/21 10:36:39;;;;;;;24.20;15.70;;;;;;;10.99;100.00;101337.53;5062594;28;20225;-71
2024/03/21 10:39:09;;;;;;;23.43;15.27;;;;;;;10.97;100.00;101336.31;5059100;28;20605;-71
2024/03/21 10:41:39;;;;;;;21.17;14.27;;;;;;;10.93;100.00;101341.41;5059930;28;20198;-71
2024/03/21 10:44:11;;;;;;;23.00;15.20;;;;;;;10.92;100.00;101336.44;5044919;28;20209;-70
2024/03/21 10:46:37;;;;;;;22.70;15.30;;;;;;;10.88;100.00;101332.84;5062938;28;20314;-71
2024/03/21 10:49:04;;;;;;;22.70;14.30;;;;;;;10.88;100.00;101324.94;5064926;28;20198;-71
2024/03/21 10:51:30;;;;;;;23.10;15.17;;;;;;;10.87;100.00;101323.38;5060237;28;20246;-71
2024/03/21 10:53:59;;;;;;;20.10;15.03;;;;;;;10.89;100.00;101310.63;5064863;28;20198;-71
2024/03/21 10:56:26;;;;;;;21.23;15.17;;;;;;;10.89;100.00;101305.34;5062089;28;20214;-71
2024/03/21 10:58:57;;;;;;;19.83;14.57;;;;;;;10.90;100.00;101301.63;5061719;28;20201;-71
2024/03/21 11:01:34;;;;;;;23.63;15.63;;;;;;;10.92;100.00;101294.94;5061660;28;20257;-71
2024/03/21 11:04:03;;;;;;;21.70;14.60;;;;;;;10.95;100.00;101289.03;5060107;28;21619;-71
2024/03/21 11:06:31;;;;;;;22.80;14.57;;;;;;;10.98;100.00;101279.72;5058840;28;20211;-70
2024/03/21 11:08:58;;;;;;;24.63;14.80;;;;;;;11.00;100.00;101273.03;5060448;28;20213;-71
2024/03/21 11:11:26;;;;;;;24.57;16.63;;;;;;;11.04;100.00;101266.03;5057606;28;20209;-71
2024/03/21 11:13:53;;;;;;;22.37;14.33;;;;;;;11.10;100.00;101256.88;5059569;28;20711;-71